createdAt,value
2022-11-17T00:00:44.081Z,3.10
2022-11-17T00:03:16.201Z,2.40
2022-11-17T00:05:44.960Z,2.20
2022-11-17T00:08:13.414Z,3.40
2022-11-17T00:10:41.589Z,2.90
2022-11-17T00:13:29.838Z,2.50
2022-11-17T00:15:58.006Z,3.50
2022-11-17T00:18:44.624Z,3.10
2022-11-17T00:21:19.381Z,2.30
2022-11-17T00:23:48.463Z,1.90
2022-11-17T00:26:19.271Z,2.10
2022-11-17T00:28:48.090Z,2.60
2022-11-17T00:31:34.971Z,3.40
2022-11-17T00:34:05.916Z,1.90
2022-11-17T00:36:45.860Z,2.10
2022-11-17T00:39:15.571Z,3.10
2022-11-17T00:41:44.335Z,2.30
2022-11-17T00:44:13.284Z,2.60
2022-11-17T00:46:42.141Z,2.60
2022-11-17T00:49:11.703Z,2.20
2022-11-17T00:51:39.816Z,2.90
2022-11-17T00:54:11.371Z,2.30
2022-11-17T00:56:40.113Z,3.50
2022-11-17T00:59:08.258Z,2.50
2022-11-17T01:01:37.355Z,2.90
2022-11-17T01:04:06.935Z,3.20
2022-11-17T01:06:39.509Z,2.60
2022-11-17T01:09:15.642Z,4.00
2022-11-17T01:11:44.823Z,2.20
2022-11-17T01:14:22.461Z,3.30
2022-11-17T01:16:51.299Z,2.40
2022-11-17T01:19:19.935Z,3.60
2022-11-17T01:21:48.519Z,1.50
2022-11-17T01:24:17.512Z,2.80
2022-11-17T01:26:46.645Z,2.60
2022-11-17T01:29:17.412Z,3.40
2022-11-17T01:31:49.713Z,1.80
2022-11-17T01:34:18.432Z,2.60
2022-11-17T01:37:05.413Z,2.00
2022-11-17T01:39:33.690Z,2.80
2022-11-17T01:42:13.229Z,3.40
2022-11-17T01:44:50.414Z,2.90
2022-11-17T01:47:43.372Z,2.30
2022-11-17T01:50:17.072Z,3.80
2022-11-17T01:52:46.886Z,2.60
2022-11-17T01:55:15.361Z,2.80
2022-11-17T01:58:02.474Z,3.10
2022-11-17T02:00:30.853Z,2.30
2022-11-17T02:02:59.365Z,2.30
2022-11-17T02:05:53.108Z,2.40
2022-11-17T02:08:24.560Z,3.40
2022-11-17T02:10:53.941Z,2.00
2022-11-17T02:13:22.632Z,3.60
2022-11-17T02:15:50.922Z,2.20
2022-11-17T02:18:19.711Z,2.20
2022-11-17T02:21:19.223Z,2.00
2022-11-17T02:24:02.315Z,1.90
2022-11-17T02:26:41.065Z,1.90
2022-11-17T02:29:18.147Z,2.10
2022-11-17T02:32:07.517Z,2.00
2022-11-17T02:34:50.643Z,1.70
2022-11-17T02:37:26.394Z,2.00
2022-11-17T02:40:02.767Z,2.20
2022-11-17T02:42:55.404Z,2.00
2022-11-17T02:45:40.272Z,2.10
2022-11-17T02:48:17.046Z,2.40
2022-11-17T02:50:49.110Z,1.50
2022-11-17T02:53:19.054Z,2.00
2022-11-17T02:55:52.319Z,2.00
2022-11-17T02:58:21.612Z,2.00
2022-11-17T03:01:11.340Z,1.90
2022-11-17T03:03:51.656Z,1.40
2022-11-17T03:06:24.948Z,2.50
2022-11-17T03:09:00.290Z,2.30
2022-11-17T03:11:44.949Z,2.00
2022-11-17T03:14:39.645Z,3.20
2022-11-17T03:17:17.454Z,2.10
2022-11-17T03:19:53.301Z,2.30
2022-11-17T03:22:44.204Z,2.10
2022-11-17T03:25:17.889Z,2.20
2022-11-17T03:27:51.203Z,2.40
2022-11-17T03:30:22.550Z,2.70
2022-11-17T03:32:56.149Z,3.60
2022-11-17T03:35:32.414Z,2.60
2022-11-17T03:38:07.966Z,1.90
2022-11-17T03:40:39.820Z,1.80
2022-11-17T03:45:45.280Z,3.40
2022-11-17T03:48:20.928Z,1.50
2022-11-17T03:50:55.144Z,1.20
2022-11-17T03:53:24.349Z,2.20
2022-11-17T03:56:08.389Z,1.90
2022-11-17T03:58:46.290Z,1.50
2022-11-17T04:01:15.342Z,1.90
2022-11-17T04:03:43.455Z,1.80
2022-11-17T04:06:11.631Z,1.90
2022-11-17T04:08:39.702Z,3.60
2022-11-17T04:11:26.205Z,1.60
2022-11-17T04:14:13.116Z,1.50
2022-11-17T04:16:41.189Z,1.70
2022-11-17T04:19:09.361Z,1.60
2022-11-17T04:21:37.444Z,1.60
2022-11-17T04:24:06.230Z,2.00
2022-11-17T04:26:52.725Z,1.70
2022-11-17T04:29:20.796Z,1.40
2022-11-17T04:31:48.970Z,1.50
2022-11-17T04:34:17.041Z,1.50
2022-11-17T04:36:45.317Z,1.60
2022-11-17T04:39:15.130Z,1.40
2022-11-17T04:42:02.249Z,1.60
2022-11-17T04:44:32.369Z,1.10
2022-11-17T04:47:03.320Z,1.00
2022-11-17T04:49:32.811Z,1.50
2022-11-17T04:52:01.393Z,1.20
2022-11-17T04:54:29.669Z,1.10
2022-11-17T04:56:57.972Z,2.20
2022-11-17T04:59:26.326Z,1.50
2022-11-17T05:01:54.451Z,2.20
2022-11-17T05:04:41.105Z,3.00
2022-11-17T05:07:09.572Z,1.60
2022-11-17T05:09:37.861Z,1.50
2022-11-17T05:12:25.796Z,1.50
2022-11-17T05:14:53.868Z,1.60
2022-11-17T05:17:21.940Z,1.30
2022-11-17T05:19:50.119Z,1.50
2022-11-17T05:22:40.431Z,1.60
2022-11-17T05:25:09.612Z,2.00
2022-11-17T05:27:38.187Z,1.10
2022-11-17T05:30:08.567Z,1.60
2022-11-17T05:32:36.893Z,1.90
2022-11-17T05:35:05.781Z,1.60
2022-11-17T05:37:33.849Z,1.50
2022-11-17T05:40:01.925Z,1.30
2022-11-17T05:42:30.096Z,2.10
2022-11-17T05:44:58.167Z,1.70
2022-11-17T05:47:26.344Z,2.10
2022-11-17T05:49:54.412Z,2.00
2022-11-17T05:52:22.484Z,5.00
2022-11-17T05:54:50.682Z,21.20
2022-11-17T05:57:27.709Z,7.90
2022-11-17T06:00:01.853Z,7.80
2022-11-17T06:02:35.146Z,6.30
2022-11-17T06:05:03.834Z,12.40
2022-11-17T06:07:32.589Z,15.40
2022-11-17T06:10:00.898Z,9.40
2022-11-17T06:12:28.966Z,7.80
2022-11-17T06:14:57.039Z,2.70
2022-11-17T06:17:31.664Z,10.80
2022-11-17T06:20:16.018Z,9.00
2022-11-17T06:22:48.287Z,5.90
2022-11-17T06:25:19.742Z,4.70
2022-11-17T06:27:50.261Z,9.00
2022-11-17T06:30:19.151Z,5.20
2022-11-17T06:32:50.198Z,5.30
2022-11-17T06:35:18.371Z,10.10
2022-11-17T06:37:46.445Z,7.70
2022-11-17T06:40:15.260Z,22.50
2022-11-17T06:43:02.244Z,16.00
2022-11-17T06:45:41.170Z,13.60
2022-11-17T06:48:10.881Z,8.00
2022-11-17T06:50:39.159Z,9.10
2022-11-17T06:53:09.787Z,8.20
2022-11-17T06:55:38.226Z,6.70
2022-11-17T06:58:09.176Z,7.40
2022-11-17T07:00:38.054Z,8.60
2022-11-17T07:03:09.376Z,5.30
2022-11-17T07:05:40.241Z,3.70
2022-11-17T07:08:09.426Z,5.90
2022-11-17T07:10:38.135Z,3.20
2022-11-17T07:13:06.237Z,4.20
2022-11-17T07:15:34.313Z,4.20
2022-11-17T07:18:02.380Z,3.40
2022-11-17T07:20:30.451Z,4.40
2022-11-17T07:23:00.372Z,3.30
2022-11-17T07:25:28.435Z,3.10
2022-11-17T07:28:00.481Z,3.10
2022-11-17T07:30:28.984Z,5.30
2022-11-17T07:33:00.210Z,2.70
2022-11-17T07:35:28.710Z,3.40
2022-11-17T07:37:58.726Z,6.10
2022-11-17T07:40:27.106Z,3.80
2022-11-17T07:42:55.868Z,5.20
2022-11-17T07:45:28.662Z,6.30
2022-11-17T07:48:02.068Z,5.90
2022-11-17T07:50:30.646Z,8.30
2022-11-17T07:52:59.134Z,4.10
2022-11-17T07:55:27.311Z,6.30
2022-11-17T07:57:57.015Z,9.70
2022-11-17T08:00:26.728Z,5.90
2022-11-17T08:02:55.300Z,5.30
2022-11-17T08:05:24.589Z,4.60
2022-11-17T08:07:56.982Z,2.90
2022-11-17T08:10:27.311Z,5.40
2022-11-17T08:12:55.376Z,3.30
2022-11-17T08:15:23.549Z,4.30
2022-11-17T08:17:53.976Z,3.60
2022-11-17T08:20:23.763Z,4.10
2022-11-17T08:22:53.289Z,4.70
2022-11-17T08:25:23.105Z,6.30
2022-11-17T08:27:54.993Z,5.90
2022-11-17T08:32:53.871Z,5.60
2022-11-17T08:35:24.607Z,16.80
2022-11-17T08:37:53.380Z,4.80
2022-11-17T08:40:21.966Z,7.80
2022-11-17T08:43:00.434Z,4.10
2022-11-17T08:45:29.280Z,5.80
2022-11-17T08:47:57.966Z,5.40
2022-11-17T08:50:26.446Z,4.20
2022-11-17T08:52:54.529Z,4.10
2022-11-17T08:55:22.742Z,5.10
2022-11-17T08:57:50.969Z,5.10
2022-11-17T09:00:21.926Z,7.30
2022-11-17T09:02:50.079Z,6.70
2022-11-17T09:05:18.151Z,5.80
2022-11-17T09:07:46.334Z,5.10
2022-11-17T09:10:14.600Z,5.80
2022-11-17T09:12:43.192Z,6.20
2022-11-17T09:15:11.460Z,6.60
2022-11-17T09:17:40.557Z,4.90
2022-11-17T09:20:09.446Z,5.90
2022-11-17T09:22:37.517Z,5.40
2022-11-17T09:25:11.863Z,7.00
2022-11-17T09:27:41.855Z,8.20
2022-11-17T09:30:11.233Z,3.90
2022-11-17T09:32:39.427Z,5.40
2022-11-17T09:35:09.504Z,4.50
2022-11-17T09:37:37.618Z,5.20
2022-11-17T09:40:07.185Z,5.10
2022-11-17T09:42:40.116Z,5.70
2022-11-17T09:45:32.034Z,3.90
2022-11-17T09:48:38.855Z,5.20
2022-11-17T09:51:02.384Z,5.50
2022-11-17T09:54:18.891Z,4.70
2022-11-17T09:56:47.778Z,4.90
2022-11-17T09:59:21.180Z,3.50
2022-11-17T10:01:49.267Z,5.90
2022-11-17T10:04:18.727Z,7.40
2022-11-17T10:06:50.697Z,6.10
2022-11-17T10:09:36.282Z,7.40
2022-11-17T10:12:18.513Z,32.60
2022-11-17T10:17:17.172Z,27.30
2022-11-17T10:19:45.994Z,20.90
2022-11-17T10:22:37.311Z,16.90
2022-11-17T10:25:40.399Z,7.70
2022-11-17T10:28:24.131Z,13.00
2022-11-17T10:31:00.297Z,19.90
2022-11-17T10:33:39.513Z,32.10
2022-11-17T10:36:31.666Z,8.10
2022-11-17T10:39:00.956Z,15.10
2022-11-17T10:41:42.252Z,23.80
2022-11-17T10:44:22.811Z,10.30
2022-11-17T10:47:02.581Z,9.90
2022-11-17T10:49:34.938Z,7.40
2022-11-17T10:54:38.439Z,18.50
2022-11-17T10:57:12.769Z,27.00
2022-11-17T10:59:57.128Z,8.70
2022-11-17T11:02:33.994Z,8.70
2022-11-17T11:05:17.732Z,23.00
2022-11-17T11:08:19.092Z,14.60
2022-11-17T11:11:16.235Z,15.90
2022-11-17T11:14:16.051Z,12.70
2022-11-17T11:16:49.550Z,11.20
2022-11-17T11:19:20.384Z,8.50
2022-11-17T11:22:06.991Z,9.50
2022-11-17T11:24:40.490Z,26.70
2022-11-17T11:27:46.551Z,11.70
2022-11-17T11:30:19.524Z,10.20
2022-11-17T11:33:39.220Z,17.60
2022-11-17T11:36:36.372Z,14.60
2022-11-17T11:39:29.032Z,14.00
2022-11-17T11:42:09.481Z,9.70
2022-11-17T11:44:52.604Z,8.30
2022-11-17T11:47:29.380Z,5.90
2022-11-17T11:50:09.437Z,8.50
2022-11-17T11:52:44.978Z,9.60
2022-11-17T11:55:29.742Z,7.60
2022-11-17T11:58:17.370Z,15.90
2022-11-17T12:00:48.206Z,11.60
2022-11-17T12:03:36.812Z,6.10
2022-11-17T12:06:42.521Z,7.80
2022-11-17T12:09:44.070Z,7.20
2022-11-17T12:12:29.037Z,9.30
2022-11-17T12:15:20.765Z,12.80
2022-11-17T12:18:02.559Z,8.80
2022-11-17T12:20:40.960Z,21.50
2022-11-17T12:23:48.260Z,18.70
2022-11-17T12:26:28.792Z,13.30
2022-11-17T12:29:21.882Z,12.70
2022-11-17T12:31:52.510Z,9.00
2022-11-17T12:34:23.756Z,7.40
2022-11-17T12:37:26.665Z,6.90
2022-11-17T12:39:58.299Z,14.50
2022-11-17T12:42:28.112Z,10.20
2022-11-17T12:45:10.729Z,11.50
2022-11-17T12:48:04.838Z,9.50
2022-11-17T12:50:53.050Z,10.80
2022-11-17T12:53:49.797Z,10.90
2022-11-17T12:56:33.435Z,10.10
2022-11-17T12:59:24.129Z,39.00
2022-11-17T13:02:11.452Z,39.90
2022-11-17T13:04:52.427Z,6.80
2022-11-17T13:07:26.260Z,6.60
2022-11-17T13:09:59.325Z,6.40
2022-11-17T13:12:30.440Z,12.40
2022-11-17T13:15:00.585Z,13.20
2022-11-17T13:17:41.661Z,11.30
2022-11-17T13:20:23.569Z,10.00
2022-11-17T13:25:38.437Z,11.70
2022-11-17T13:28:06.509Z,13.00
2022-11-17T13:30:34.784Z,14.00
2022-11-17T13:33:04.418Z,13.20
2022-11-17T13:35:35.846Z,18.40
2022-11-17T13:38:19.592Z,22.60
2022-11-17T13:40:50.108Z,19.80
2022-11-17T13:43:23.505Z,17.60
2022-11-17T13:45:53.420Z,12.20
2022-11-17T13:48:32.754Z,18.50
2022-11-17T13:51:33.289Z,12.30
2022-11-17T13:54:15.615Z,14.90
2022-11-17T13:56:47.062Z,23.50
2022-11-17T13:59:41.429Z,18.80
2022-11-17T14:02:15.438Z,28.90
2022-11-17T14:05:09.536Z,19.70
2022-11-17T14:07:39.757Z,11.70
2022-11-17T14:10:20.313Z,10.40
2022-11-17T14:12:50.840Z,19.80
2022-11-17T14:15:23.208Z,21.10
2022-11-17T14:17:54.350Z,21.30
2022-11-17T14:20:25.289Z,20.40
2022-11-17T14:23:21.420Z,15.40
2022-11-17T14:25:50.411Z,10.60
2022-11-17T14:28:21.219Z,9.50
2022-11-17T14:30:57.715Z,12.00
2022-11-17T14:33:26.197Z,11.10
2022-11-17T14:35:57.227Z,13.00
2022-11-17T14:38:26.022Z,12.30
2022-11-17T14:40:54.198Z,31.50
2022-11-17T14:43:22.986Z,50.20
2022-11-17T14:45:51.252Z,51.60
2022-11-17T14:48:20.410Z,30.80
2022-11-17T14:50:55.290Z,104.50
2022-11-17T14:53:24.097Z,213.20
2022-11-17T14:55:52.657Z,139.80
2022-11-17T14:58:20.971Z,57.70
2022-11-17T15:00:49.113Z,48.90
2022-11-17T15:03:17.205Z,43.10
2022-11-17T15:05:46.485Z,93.70
2022-11-17T15:08:14.860Z,86.70
2022-11-17T15:10:44.775Z,93.10
2022-11-17T15:13:12.867Z,60.50
2022-11-17T15:15:40.916Z,93.90
2022-11-17T15:18:12.484Z,67.00
2022-11-17T15:20:40.541Z,65.60
2022-11-17T15:23:08.820Z,60.60
2022-11-17T15:25:39.215Z,47.70
2022-11-17T15:28:07.314Z,33.00
2022-11-17T15:30:35.487Z,33.90
2022-11-17T15:33:03.663Z,43.10
2022-11-17T15:35:31.850Z,45.00
2022-11-17T15:38:00.014Z,51.60
2022-11-17T15:40:28.183Z,63.50
2022-11-17T15:42:56.254Z,80.10
2022-11-17T15:45:24.326Z,67.40
2022-11-17T15:47:52.396Z,62.00
2022-11-17T15:50:20.469Z,71.50
2022-11-17T15:53:03.654Z,56.70
2022-11-17T15:55:35.395Z,57.30
2022-11-17T15:58:03.729Z,58.30
2022-11-17T16:00:34.048Z,68.30
2022-11-17T16:03:02.408Z,51.60
2022-11-17T16:05:30.502Z,49.30
2022-11-17T16:07:58.577Z,58.80
2022-11-17T16:10:27.591Z,35.20
2022-11-17T16:12:56.675Z,29.80
2022-11-17T16:15:25.044Z,19.40
2022-11-17T16:17:53.418Z,28.60
2022-11-17T16:20:21.621Z,33.30
2022-11-17T16:22:49.970Z,29.90
2022-11-17T16:25:18.041Z,25.10
2022-11-17T16:27:46.113Z,30.50
2022-11-17T16:30:14.979Z,31.10
2022-11-17T16:32:42.993Z,58.70
2022-11-17T16:35:11.016Z,30.50
2022-11-17T16:37:39.216Z,24.50
2022-11-17T16:40:08.211Z,27.20
2022-11-17T16:42:36.976Z,22.50
2022-11-17T16:45:05.878Z,24.00
2022-11-17T16:47:33.959Z,22.20
2022-11-17T16:50:03.874Z,16.70
2022-11-17T16:52:34.822Z,14.90
2022-11-17T16:55:05.101Z,20.60
2022-11-17T16:57:33.620Z,16.60
2022-11-17T17:00:02.207Z,19.80
2022-11-17T17:02:30.451Z,19.80
2022-11-17T17:04:58.761Z,15.30
2022-11-17T17:07:27.043Z,18.10
2022-11-17T17:09:55.203Z,52.90
2022-11-17T17:12:23.785Z,28.80
2022-11-17T17:14:51.857Z,22.00
2022-11-17T17:17:19.928Z,25.80
2022-11-17T17:19:47.999Z,27.80
2022-11-17T17:22:16.073Z,19.30
2022-11-17T17:24:44.141Z,18.20
2022-11-17T17:27:12.213Z,16.90
2022-11-17T17:29:40.283Z,17.50
2022-11-17T17:32:08.456Z,18.10
2022-11-17T17:34:36.530Z,15.00
2022-11-17T17:37:04.803Z,18.40
2022-11-17T17:39:33.900Z,95.20
2022-11-17T17:42:01.972Z,89.40
2022-11-17T17:44:30.144Z,89.10
2022-11-17T17:46:58.631Z,49.60
2022-11-17T17:49:26.696Z,32.80
2022-11-17T17:51:54.873Z,56.90
2022-11-17T17:54:24.222Z,48.90
2022-11-17T17:56:53.071Z,58.20
2022-11-17T17:59:21.242Z,38.60
2022-11-17T18:01:49.850Z,35.70
2022-11-17T18:04:18.093Z,26.40
2022-11-17T18:06:48.338Z,26.50
2022-11-17T18:09:20.529Z,23.20
2022-11-17T18:11:50.988Z,21.10
2022-11-17T18:14:24.516Z,25.50
2022-11-17T18:16:54.053Z,24.00
2022-11-17T18:19:25.878Z,32.30
2022-11-17T18:21:59.887Z,28.80
2022-11-17T18:24:28.569Z,30.10
2022-11-17T18:26:56.744Z,33.10
2022-11-17T18:29:25.123Z,37.10
2022-11-17T18:31:53.199Z,39.90
2022-11-17T18:34:25.690Z,38.20
2022-11-17T18:36:58.454Z,46.30
2022-11-17T18:39:28.467Z,39.70
2022-11-17T18:41:56.539Z,45.20
2022-11-17T18:44:24.816Z,69.50
2022-11-17T18:46:55.038Z,54.20
2022-11-17T18:49:26.486Z,38.10
2022-11-17T18:51:54.557Z,44.10
2022-11-17T18:54:22.628Z,34.90
2022-11-17T18:56:50.700Z,27.70
2022-11-17T18:59:19.135Z,34.90
2022-11-17T19:01:47.768Z,40.30
2022-11-17T19:04:16.042Z,61.40
2022-11-17T19:06:44.213Z,36.70
2022-11-17T19:09:13.681Z,28.00
2022-11-17T19:11:42.404Z,26.50
2022-11-17T19:14:10.477Z,39.50
2022-11-17T19:16:44.634Z,42.70
2022-11-17T19:19:14.644Z,38.40
2022-11-17T19:21:43.193Z,44.60
2022-11-17T19:24:11.669Z,30.70
2022-11-17T19:26:40.151Z,33.30
2022-11-17T19:29:16.650Z,44.40
2022-11-17T19:31:46.431Z,54.60
2022-11-17T19:34:15.862Z,60.70
2022-11-17T19:36:45.033Z,51.10
2022-11-17T19:39:14.522Z,33.80
2022-11-17T19:41:45.360Z,34.70
2022-11-17T19:44:14.059Z,41.50
2022-11-17T19:46:43.522Z,96.80
2022-11-17T19:49:12.565Z,141.80
2022-11-17T19:51:42.067Z,70.40
2022-11-17T19:54:12.588Z,59.00
2022-11-17T19:56:40.866Z,41.60
2022-11-17T19:59:15.212Z,31.20
2022-11-17T20:01:45.507Z,33.50
2022-11-17T20:04:13.894Z,43.20
2022-11-17T20:06:42.365Z,30.70
2022-11-17T20:09:14.328Z,29.70
2022-11-17T20:11:43.337Z,31.10
2022-11-17T20:14:11.596Z,34.60
2022-11-17T20:16:39.872Z,32.90
2022-11-17T20:19:08.969Z,39.50
2022-11-17T20:21:37.038Z,30.30
2022-11-17T20:24:05.726Z,51.70
2022-11-17T20:26:35.826Z,32.90
2022-11-17T20:29:03.848Z,32.80
2022-11-17T20:31:34.041Z,30.40
2022-11-17T20:34:04.433Z,34.00
2022-11-17T20:36:34.776Z,30.50
2022-11-17T20:39:06.133Z,43.40
2022-11-17T20:41:34.684Z,41.10
2022-11-17T20:44:04.127Z,40.60
2022-11-17T20:46:32.402Z,25.50
2022-11-17T20:49:00.568Z,29.00
2022-11-17T20:51:28.643Z,30.60
2022-11-17T20:53:56.711Z,22.20
2022-11-17T20:56:24.884Z,25.30
2022-11-17T20:58:53.264Z,23.70
2022-11-17T21:01:24.079Z,31.30
2022-11-17T21:03:52.684Z,27.10
2022-11-17T21:06:23.288Z,27.10
2022-11-17T21:08:51.820Z,30.30
2022-11-17T21:11:40.855Z,34.00
2022-11-17T21:14:11.796Z,24.00
2022-11-17T21:16:42.630Z,26.70
2022-11-17T21:19:10.702Z,25.90
2022-11-17T21:21:39.182Z,24.10
2022-11-17T21:24:08.157Z,20.00
2022-11-17T21:26:36.454Z,20.00
2022-11-17T21:29:06.940Z,19.40
2022-11-17T21:31:35.666Z,19.50
2022-11-17T21:34:06.811Z,26.90
2022-11-17T21:36:36.091Z,22.20
2022-11-17T21:39:04.695Z,70.40
2022-11-17T21:41:38.628Z,40.50
2022-11-17T21:44:06.783Z,26.90
2022-11-17T21:46:36.625Z,28.00
2022-11-17T21:49:05.073Z,23.60
2022-11-17T21:51:38.715Z,34.20
2022-11-17T21:54:10.080Z,34.30
2022-11-17T21:56:38.601Z,25.80
2022-11-17T21:59:11.491Z,32.90
2022-11-17T22:01:40.236Z,26.60
2022-11-17T22:04:08.957Z,19.80
2022-11-17T22:06:38.666Z,17.10
2022-11-17T22:09:06.844Z,18.60
2022-11-17T22:11:38.644Z,17.90
2022-11-17T22:14:19.398Z,18.10
2022-11-17T22:16:53.071Z,24.20
2022-11-17T22:19:23.199Z,23.50
2022-11-17T22:21:53.771Z,25.20
2022-11-17T22:24:22.412Z,22.20
2022-11-17T22:26:51.909Z,18.50
2022-11-17T22:29:22.408Z,21.10
2022-11-17T22:31:51.504Z,19.70
2022-11-17T22:34:19.707Z,23.10
2022-11-17T22:36:47.778Z,17.90
2022-11-17T22:39:16.881Z,16.70
2022-11-17T22:41:45.148Z,14.80
2022-11-17T22:44:14.682Z,15.50
2022-11-17T22:46:46.004Z,19.40
2022-11-17T22:49:14.331Z,19.40
2022-11-17T22:52:01.497Z,16.40
2022-11-17T22:54:30.706Z,17.00
2022-11-17T22:56:59.288Z,15.90
2022-11-17T22:59:28.991Z,17.70
2022-11-17T23:01:57.316Z,20.00
2022-11-17T23:04:25.540Z,15.60
2022-11-17T23:06:53.784Z,19.40
2022-11-17T23:09:22.094Z,16.90
2022-11-17T23:11:50.169Z,17.80
2022-11-17T23:14:19.287Z,14.60
2022-11-17T23:16:47.432Z,19.10
2022-11-17T23:19:16.120Z,19.20
2022-11-17T23:21:44.599Z,16.80
2022-11-17T23:24:14.819Z,15.90
2022-11-17T23:26:43.403Z,13.60
2022-11-17T23:29:11.474Z,17.00
2022-11-17T23:31:40.060Z,15.40
2022-11-17T23:34:10.269Z,16.80
2022-11-17T23:36:38.662Z,18.00
2022-11-17T23:39:06.831Z,17.70
2022-11-17T23:41:35.007Z,17.10
2022-11-17T23:44:03.386Z,16.60
2022-11-17T23:46:31.557Z,15.10
2022-11-17T23:48:59.832Z,15.60
2022-11-17T23:51:30.018Z,15.20
2022-11-17T23:53:59.881Z,19.50
2022-11-17T23:56:28.001Z,14.90
2022-11-17T23:58:56.111Z,16.40
